Time;durP1;ratioP1;P1;durP2;ratioP2;P2;SDS_P1;SDS_P2;PMS_P1;PMS_P2;Temp;Humidity;BMP_temperature;BMP_pressure;BME280_temperature;BME280_humidity;BME280_pressure;Samples;Min_cycle;Max_cycle;Signal;HPM_P1;HPM_P2
2021/09/16 00:01:23;;;;;;;12.80;6.93;;;;;;;;;;5038515;28;20454;-55
2021/09/16 00:03:49;;;;;;;10.63;7.00;;;;;;;;;;5057561;28;20033;-55
2021/09/16 00:06:15;;;;;;;16.40;8.00;;;;;;;;;;5061220;28;20056;-57
2021/09/16 00:08:41;;;;;;;14.77;7.32;;;;;;;;;;5051883;28;20116;-54
2021/09/16 00:11:07;;;;;;;15.20;6.78;;;;;;;;;;5050045;28;20037;-55
2021/09/16 00:13:33;;;;;;;11.10;7.38;;;;;;;;;;5052429;28;20021;-56
2021/09/16 00:15:59;;;;;;;9.43;6.10;;;;;;;;;;5055375;28;20031;-56
2021/09/16 00:18:25;;;;;;;7.78;5.78;;;;;;;;;;5061995;28;20025;-55
2021/09/16 00:20:51;;;;;;;13.82;6.82;;;;;;;;;;5045896;28;20041;-56
2021/09/16 00:23:17;;;;;;;12.85;6.60;;;;;;;;;;5054573;28;20035;-55
2021/09/16 00:25:43;;;;;;;9.73;6.20;;;;;;;;;;5052531;28;20029;-52
2021/09/16 00:28:09;;;;;;;9.52;6.30;;;;;;;;;;5045320;28;20055;-52
2021/09/16 00:30:35;;;;;;;9.73;6.03;;;;;;;;;;5053129;28;20032;-55
2021/09/16 00:33:01;;;;;;;9.30;6.03;;;;;;;;;;5057295;28;20579;-57
2021/09/16 00:35:28;;;;;;;11.88;6.18;;;;;;;;;;5051587;28;20112;-57
2021/09/16 00:37:53;;;;;;;10.02;7.15;;;;;;;;;;5063361;28;20377;-57
2021/09/16 00:40:20;;;;;;;9.18;5.88;;;;;;;;;;5049732;28;20063;-56
2021/09/16 00:42:46;;;;;;;9.23;5.80;;;;;;;;;;5056903;28;20078;-56
2021/09/16 00:45:13;;;;;;;13.07;7.40;;;;;;;;;;5055142;28;20112;-55
2021/09/16 00:47:41;;;;;;;13.73;6.80;;;;;;;;;;5057089;28;20036;-53
2021/09/16 00:50:08;;;;;;;11.65;6.25;;;;;;;;;;5048300;28;20064;-56
2021/09/16 00:52:34;;;;;;;10.98;6.70;;;;;;;;;;5047737;28;20100;-57
2021/09/16 00:55:01;;;;;;;14.98;7.95;;;;;;;;;;5055968;28;20420;-55
2021/09/16 00:57:28;;;;;;;9.70;6.13;;;;;;;;;;5055309;28;20012;-51
2021/09/16 00:59:55;;;;;;;11.00;5.85;;;;;;;;;;5036832;28;20026;-53
2021/09/16 01:02:21;;;;;;;7.82;5.10;;;;;;;;;;5051586;28;20388;-55
2021/09/16 01:04:47;;;;;;;15.75;6.30;;;;;;;;;;5036943;28;20032;-53
2021/09/16 01:07:14;;;;;;;10.82;6.35;;;;;;;;;;5060138;28;20073;-55
2021/09/16 01:09:40;;;;;;;8.32;5.55;;;;;;;;;;5038774;28;20030;-54
2021/09/16 01:12:06;;;;;;;10.95;6.38;;;;;;;;;;5054087;28;20111;-54
2021/09/16 01:14:32;;;;;;;11.55;6.82;;;;;;;;;;5050206;28;20094;-55
2021/09/16 01:17:00;;;;;;;10.23;5.82;;;;;;;;;;5062099;28;20544;-55
2021/09/16 01:19:26;;;;;;;10.40;6.65;;;;;;;;;;5061681;28;20102;-55
2021/09/16 01:21:52;;;;;;;9.75;6.18;;;;;;;;;;5049557;28;20524;-56
2021/09/16 01:24:18;;;;;;;8.98;5.93;;;;;;;;;;5052733;28;20074;-58
2021/09/16 01:26:44;;;;;;;9.82;6.40;;;;;;;;;;5060481;28;20108;-58
2021/09/16 01:29:14;;;;;;;9.13;6.40;;;;;;;;;;5059317;28;20047;-58
2021/09/16 01:31:45;;;;;;;9.43;5.75;;;;;;;;;;5057093;28;20033;-58
2021/09/16 01:34:11;;;;;;;11.35;6.05;;;;;;;;;;5062900;28;20526;-57
2021/09/16 01:36:39;;;;;;;10.10;6.63;;;;;;;;;;5052934;28;20064;-57
2021/09/16 01:39:06;;;;;;;14.55;6.30;;;;;;;;;;5054572;28;20029;-55
2021/09/16 01:41:32;;;;;;;11.43;5.88;;;;;;;;;;5048593;28;20035;-56
2021/09/16 01:43:58;;;;;;;7.85;5.35;;;;;;;;;;5053883;28;20052;-56
2021/09/16 01:46:24;;;;;;;9.43;5.72;;;;;;;;;;5048793;28;20025;-56
2021/09/16 01:48:50;;;;;;;10.23;6.43;;;;;;;;;;5055054;28;20742;-57
2021/09/16 01:51:16;;;;;;;9.45;5.80;;;;;;;;;;5045993;28;20025;-52
2021/09/16 01:53:43;;;;;;;13.15;7.13;;;;;;;;;;5049411;28;20066;-56
2021/09/16 01:56:09;;;;;;;13.00;7.03;;;;;;;;;;5053205;28;20017;-55
2021/09/16 01:58:38;;;;;;;11.38;7.47;;;;;;;;;;5045855;28;20033;-54
2021/09/16 02:01:05;;;;;;;10.95;6.32;;;;;;;;;;5045604;28;20432;-56
2021/09/16 02:03:31;;;;;;;10.57;6.82;;;;;;;;;;5053785;28;20457;-56
2021/09/16 02:05:57;;;;;;;13.45;6.97;;;;;;;;;;5048441;28;20045;-55
2021/09/16 02:08:23;;;;;;;14.40;6.68;;;;;;;;;;5053106;28;20159;-55
2021/09/16 02:10:50;;;;;;;13.43;7.43;;;;;;;;;;5051952;28;20088;-56
2021/09/16 02:13:16;;;;;;;11.40;7.18;;;;;;;;;;5045883;28;20109;-52
2021/09/16 02:15:42;;;;;;;11.98;7.30;;;;;;;;;;5051509;28;20033;-56
2021/09/16 02:18:08;;;;;;;13.48;7.28;;;;;;;;;;5051341;28;20037;-58
2021/09/16 02:20:34;;;;;;;12.50;7.13;;;;;;;;;;5042450;28;20045;-57
2021/09/16 02:23:00;;;;;;;15.20;7.53;;;;;;;;;;5046464;28;20483;-55
2021/09/16 02:25:26;;;;;;;12.93;8.27;;;;;;;;;;5040509;28;20040;-55
2021/09/16 02:27:52;;;;;;;17.77;8.60;;;;;;;;;;5038144;28;20037;-56
2021/09/16 02:30:18;;;;;;;14.32;8.02;;;;;;;;;;5039251;28;20025;-57
2021/09/16 02:32:44;;;;;;;12.15;8.27;;;;;;;;;;5045867;28;20030;-57
2021/09/16 02:35:11;;;;;;;12.27;7.53;;;;;;;;;;5064979;28;20021;-56
2021/09/16 02:37:37;;;;;;;15.15;8.57;;;;;;;;;;5043948;28;20461;-55
2021/09/16 02:40:03;;;;;;;14.25;8.52;;;;;;;;;;5050181;28;20028;-57
2021/09/16 02:42:29;;;;;;;14.13;7.85;;;;;;;;;;5052543;28;20090;-55
2021/09/16 02:44:55;;;;;;;14.85;8.45;;;;;;;;;;5050292;28;20033;-53
2021/09/16 02:47:21;;;;;;;13.43;7.35;;;;;;;;;;5053768;28;20029;-52
2021/09/16 02:49:47;;;;;;;16.90;7.97;;;;;;;;;;5056099;28;20048;-57
2021/09/16 02:52:13;;;;;;;15.48;8.50;;;;;;;;;;5045975;28;20128;-55
2021/09/16 02:54:39;;;;;;;13.20;7.85;;;;;;;;;;5046510;28;20017;-56
2021/09/16 02:57:05;;;;;;;16.02;8.55;;;;;;;;;;5052254;28;20381;-56
2021/09/16 02:59:31;;;;;;;15.27;8.10;;;;;;;;;;5056916;28;20084;-56
2021/09/16 03:01:57;;;;;;;16.65;9.75;;;;;;;;;;5049264;28;20040;-56
2021/09/16 03:04:23;;;;;;;20.85;8.82;;;;;;;;;;5050773;28;20523;-57
2021/09/16 03:06:49;;;;;;;15.77;8.60;;;;;;;;;;5050564;28;20033;-57
2021/09/16 03:09:15;;;;;;;14.50;7.88;;;;;;;;;;5047892;28;20025;-56
2021/09/16 03:11:41;;;;;;;16.67;8.55;;;;;;;;;;5055614;28;20024;-57
2021/09/16 03:14:07;;;;;;;15.15;8.57;;;;;;;;;;5052391;28;20025;-58
2021/09/16 03:16:33;;;;;;;13.70;8.27;;;;;;;;;;5047372;28;20116;-57
2021/09/16 03:18:59;;;;;;;18.08;8.85;;;;;;;;;;5057929;28;20466;-54
2021/09/16 03:21:25;;;;;;;16.05;8.73;;;;;;;;;;5055243;28;20028;-55
2021/09/16 03:23:51;;;;;;;17.10;9.73;;;;;;;;;;5047445;28;20060;-57
2021/09/16 03:26:17;;;;;;;15.85;8.80;;;;;;;;;;5040486;28;20091;-54
2021/09/16 03:28:43;;;;;;;17.23;9.18;;;;;;;;;;5051361;28;20036;-53
2021/09/16 03:31:09;;;;;;;15.27;8.55;;;;;;;;;;5055674;28;20099;-56
2021/09/16 03:33:35;;;;;;;16.17;9.07;;;;;;;;;;5045095;28;20358;-56
2021/09/16 03:36:01;;;;;;;16.27;8.90;;;;;;;;;;5051414;28;20028;-53
2021/09/16 03:38:27;;;;;;;22.25;10.23;;;;;;;;;;5043655;28;20033;-56
2021/09/16 03:40:53;;;;;;;17.45;9.45;;;;;;;;;;5045866;28;20028;-55
2021/09/16 03:43:19;;;;;;;21.45;9.85;;;;;;;;;;5046381;28;20029;-52
2021/09/16 03:45:45;;;;;;;18.25;8.80;;;;;;;;;;5043171;28;20023;-55
2021/09/16 03:48:11;;;;;;;20.83;10.98;;;;;;;;;;5045306;28;20030;-55
2021/09/16 03:50:37;;;;;;;18.70;10.27;;;;;;;;;;5047956;28;20342;-57
2021/09/16 03:53:03;;;;;;;22.83;12.25;;;;;;;;;;5051198;28;20027;-57
2021/09/16 03:55:29;;;;;;;19.00;10.77;;;;;;;;;;5045771;28;20105;-55
2021/09/16 03:57:56;;;;;;;26.48;12.07;;;;;;;;;;5045023;28;20036;-57
2021/09/16 04:00:22;;;;;;;24.33;12.23;;;;;;;;;;5049599;28;20029;-55
2021/09/16 04:02:48;;;;;;;22.38;11.65;;;;;;;;;;5043378;28;20083;-54
2021/09/16 04:05:14;;;;;;;21.95;11.73;;;;;;;;;;5036688;28;20496;-57
2021/09/16 04:07:40;;;;;;;22.58;12.00;;;;;;;;;;5043301;28;20453;-56
2021/09/16 04:10:07;;;;;;;25.67;12.38;;;;;;;;;;5050477;28;20036;-56
2021/09/16 04:12:33;;;;;;;24.58;12.48;;;;;;;;;;5058125;28;20103;-56
2021/09/16 04:14:59;;;;;;;23.02;10.95;;;;;;;;;;5047867;28;20422;-54
2021/09/16 04:17:25;;;;;;;19.40;11.07;;;;;;;;;;5043419;28;20031;-55
2021/09/16 04:19:51;;;;;;;18.73;10.85;;;;;;;;;;5047672;28;20056;-56
2021/09/16 04:22:17;;;;;;;21.10;11.80;;;;;;;;;;5043300;28;20071;-57
2021/09/16 04:24:46;;;;;;;16.70;10.10;;;;;;;;;;5054112;28;20041;-57
2021/09/16 04:27:13;;;;;;;22.40;10.10;;;;;;;;;;5058248;28;20112;-55
2021/09/16 04:29:39;;;;;;;20.60;10.27;;;;;;;;;;5049405;28;20349;-56
2021/09/16 04:32:05;;;;;;;15.75;9.60;;;;;;;;;;5058741;28;20076;-57
2021/09/16 04:34:32;;;;;;;18.58;9.35;;;;;;;;;;5055751;28;20473;-51
2021/09/16 04:36:58;;;;;;;16.52;9.50;;;;;;;;;;5050379;28;20041;-57
2021/09/16 04:39:23;;;;;;;21.98;10.05;;;;;;;;;;5053599;28;20020;-57
2021/09/16 04:41:49;;;;;;;17.77;9.65;;;;;;;;;;5049234;28;20164;-55
2021/09/16 04:44:15;;;;;;;17.05;9.35;;;;;;;;;;5046195;28;20024;-56
2021/09/16 04:46:41;;;;;;;15.50;8.02;;;;;;;;;;5042156;28;20108;-53
2021/09/16 04:49:07;;;;;;;16.65;8.60;;;;;;;;;;5045556;28;20442;-54
2021/09/16 04:51:33;;;;;;;14.48;8.05;;;;;;;;;;5041106;28;20099;-54
2021/09/16 04:53:59;;;;;;;15.27;8.40;;;;;;;;;;5063449;28;20032;-54
2021/09/16 04:56:25;;;;;;;16.83;9.82;;;;;;;;;;5045687;28;20565;-54
2021/09/16 04:58:51;;;;;;;16.95;9.10;;;;;;;;;;5047310;28;20037;-54
2021/09/16 05:01:17;;;;;;;18.58;10.25;;;;;;;;;;5052704;28;20029;-56
2021/09/16 05:03:43;;;;;;;17.50;9.15;;;;;;;;;;5053136;28;20528;-52
2021/09/16 05:06:09;;;;;;;14.18;8.80;;;;;;;;;;5041222;28;20036;-57
2021/09/16 05:08:35;;;;;;;18.70;9.27;;;;;;;;;;5046604;28;20109;-57
2021/09/16 05:11:01;;;;;;;14.00;7.88;;;;;;;;;;5033720;28;20710;-57
2021/09/16 05:13:27;;;;;;;13.02;8.20;;;;;;;;;;5029448;28;20369;-57
2021/09/16 05:15:53;;;;;;;13.73;7.90;;;;;;;;;;5042549;28;20064;-56
2021/09/16 05:18:19;;;;;;;13.43;7.28;;;;;;;;;;5048882;28;20059;-56
2021/09/16 05:20:45;;;;;;;11.57;6.63;;;;;;;;;;5048983;28;20041;-57
2021/09/16 05:23:11;;;;;;;12.63;7.13;;;;;;;;;;5057359;28;20071;-53
2021/09/16 05:25:37;;;;;;;14.57;7.07;;;;;;;;;;5053907;28;20111;-54
2021/09/16 05:28:03;;;;;;;9.75;5.72;;;;;;;;;;5054429;28;20021;-52
2021/09/16 05:30:29;;;;;;;10.73;6.05;;;;;;;;;;5044814;28;20060;-53
2021/09/16 05:32:55;;;;;;;11.25;6.57;;;;;;;;;;5047774;28;20056;-56
2021/09/16 05:35:21;;;;;;;9.57;5.53;;;;;;;;;;5045971;28;20029;-55
2021/09/16 05:37:47;;;;;;;11.32;5.88;;;;;;;;;;5044965;28;20040;-55
2021/09/16 05:40:14;;;;;;;11.38;6.53;;;;;;;;;;5049087;28;20080;-53
2021/09/16 05:42:40;;;;;;;7.40;5.40;;;;;;;;;;5051611;28;20400;-55
2021/09/16 05:45:07;;;;;;;9.73;5.93;;;;;;;;;;5048592;28;20033;-53
2021/09/16 05:47:33;;;;;;;7.03;4.60;;;;;;;;;;5040339;28;20061;-52
2021/09/16 05:49:59;;;;;;;8.70;5.10;;;;;;;;;;5056038;28;20871;-54
2021/09/16 05:52:25;;;;;;;13.60;6.18;;;;;;;;;;5049679;28;20032;-55
2021/09/16 05:54:51;;;;;;;8.30;4.78;;;;;;;;;;5046146;28;20143;-57
2021/09/16 05:57:17;;;;;;;8.60;5.22;;;;;;;;;;5057421;28;20052;-57
2021/09/16 05:59:43;;;;;;;7.63;5.22;;;;;;;;;;5046557;28;20034;-57
2021/09/16 06:02:09;;;;;;;9.13;4.95;;;;;;;;;;5046807;28;20037;-56
2021/09/16 06:04:35;;;;;;;7.57;4.88;;;;;;;;;;5051828;28;20480;-57
2021/09/16 06:07:04;;;;;;;9.15;4.95;;;;;;;;;;5055279;28;20044;-55
2021/09/16 06:09:30;;;;;;;9.18;5.28;;;;;;;;;;5054242;28;20453;-56
2021/09/16 06:11:56;;;;;;;9.30;5.93;;;;;;;;;;5053021;28;20016;-53
2021/09/16 06:14:22;;;;;;;6.78;4.65;;;;;;;;;;5047893;28;20033;-55
2021/09/16 06:16:48;;;;;;;7.78;5.15;;;;;;;;;;5051939;28;20107;-56
2021/09/16 06:19:14;;;;;;;10.07;4.72;;;;;;;;;;5051898;28;20043;-53
2021/09/16 06:21:41;;;;;;;8.95;4.90;;;;;;;;;;5037551;28;20030;-55
2021/09/16 06:24:07;;;;;;;6.50;4.45;;;;;;;;;;5061067;28;20043;-57
2021/09/16 06:26:33;;;;;;;7.88;4.10;;;;;;;;;;5047791;28;20037;-54
2021/09/16 06:28:59;;;;;;;6.90;4.47;;;;;;;;;;5060402;28;20020;-56
2021/09/16 06:31:25;;;;;;;6.90;4.28;;;;;;;;;;5054030;28;20040;-55
2021/09/16 06:33:51;;;;;;;9.90;4.55;;;;;;;;;;5043770;28;20024;-54
2021/09/16 06:36:17;;;;;;;6.82;4.13;;;;;;;;;;5048455;28;20096;-55
2021/09/16 06:38:43;;;;;;;10.73;4.97;;;;;;;;;;5036070;28;20041;-55
2021/09/16 06:41:09;;;;;;;7.57;4.55;;;;;;;;;;5052167;28;20527;-57
2021/09/16 06:43:35;;;;;;;9.60;5.15;;;;;;;;;;5058276;28;20059;-57
2021/09/16 06:46:01;;;;;;;7.85;4.88;;;;;;;;;;5057311;28;20056;-56
2021/09/16 06:48:27;;;;;;;8.13;4.30;;;;;;;;;;5041690;28;20091;-57
2021/09/16 06:50:53;;;;;;;9.50;4.88;;;;;;;;;;5049338;28;20061;-55
2021/09/16 06:53:19;;;;;;;9.13;4.25;;;;;;;;;;5059566;28;20024;-53
2021/09/16 06:55:45;;;;;;;8.75;4.28;;;;;;;;;;5061793;28;20013;-56
2021/09/16 06:58:11;;;;;;;5.10;3.80;;;;;;;;;;5055720;28;20399;-57
2021/09/16 07:00:37;;;;;;;7.28;3.70;;;;;;;;;;5053401;28;20029;-56
2021/09/16 07:03:06;;;;;;;6.82;3.85;;;;;;;;;;5048612;28;20079;-52
2021/09/16 07:05:32;;;;;;;5.50;3.30;;;;;;;;;;5059455;28;20520;-55
2021/09/16 07:07:58;;;;;;;5.93;3.42;;;;;;;;;;5054933;28;20062;-55
2021/09/16 07:10:24;;;;;;;3.42;2.40;;;;;;;;;;5051278;28;20107;-54
2021/09/16 07:12:50;;;;;;;4.28;2.80;;;;;;;;;;5051304;28;20025;-52
2021/09/16 07:15:16;;;;;;;3.53;2.47;;;;;;;;;;5054845;28;20413;-56
2021/09/16 07:17:42;;;;;;;3.72;2.78;;;;;;;;;;5047962;28;20040;-53
2021/09/16 07:20:08;;;;;;;8.85;3.03;;;;;;;;;;5050879;28;20412;-54
2021/09/16 07:22:34;;;;;;;4.38;2.70;;;;;;;;;;5050030;28;20834;-56
2021/09/16 07:25:00;;;;;;;5.22;2.40;;;;;;;;;;5034370;28;20028;-53
2021/09/16 07:27:26;;;;;;;3.67;2.75;;;;;;;;;;5049878;28;20549;-57
2021/09/16 07:29:52;;;;;;;3.40;2.15;;;;;;;;;;5053659;28;20025;-55
2021/09/16 07:32:18;;;;;;;5.90;2.15;;;;;;;;;;5053883;28;20100;-55
2021/09/16 07:34:44;;;;;;;5.32;2.97;;;;;;;;;;5051811;28;20021;-54
2021/09/16 07:37:10;;;;;;;5.57;2.47;;;;;;;;;;5055138;28;20679;-56
2021/09/16 07:39:36;;;;;;;3.13;2.35;;;;;;;;;;5046504;28;20025;-56
2021/09/16 07:42:02;;;;;;;3.35;1.90;;;;;;;;;;5049345;28;20021;-55
2021/09/16 07:44:28;;;;;;;3.13;1.90;;;;;;;;;;5050492;28;20648;-52
2021/09/16 07:46:54;;;;;;;2.72;1.95;;;;;;;;;;5056566;28;20048;-56
2021/09/16 07:49:20;;;;;;;2.40;1.90;;;;;;;;;;5053397;28;20021;-53
2021/09/16 07:51:46;;;;;;;2.83;2.17;;;;;;;;;;5060755;28;20028;-56
2021/09/16 07:54:12;;;;;;;3.17;1.38;;;;;;;;;;5051732;28;20021;-56
2021/09/16 07:56:39;;;;;;;1.60;1.25;;;;;;;;;;5060021;28;20108;-53
2021/09/16 07:59:05;;;;;;;3.90;1.48;;;;;;;;;;5053720;28;20338;-52
2021/09/16 08:01:31;;;;;;;2.05;1.25;;;;;;;;;;5036361;28;20128;-55
2021/09/16 08:03:57;;;;;;;2.70;1.60;;;;;;;;;;5054550;28;20033;-54
2021/09/16 08:06:23;;;;;;;1.88;1.20;;;;;;;;;;5053187;28;20040;-55
2021/09/16 08:08:49;;;;;;;2.33;1.15;;;;;;;;;;5051157;28;20071;-54
2021/09/16 08:11:15;;;;;;;2.08;1.48;;;;;;;;;;5053089;28;20032;-57
2021/09/16 08:13:41;;;;;;;3.70;1.35;;;;;;;;;;5049928;28;20033;-57
2021/09/16 08:16:07;;;;;;;2.25;1.65;;;;;;;;;;5051876;28;20028;-56
2021/09/16 08:18:33;;;;;;;3.03;1.30;;;;;;;;;;5050181;28;20100;-57
2021/09/16 08:21:00;;;;;;;1.70;1.00;;;;;;;;;;5053538;28;20112;-58
2021/09/16 08:23:26;;;;;;;2.17;1.20;;;;;;;;;;5047611;28;20116;-57
2021/09/16 08:25:52;;;;;;;1.35;1.10;;;;;;;;;;5030992;28;20132;-57
2021/09/16 08:28:18;;;;;;;1.98;0.90;;;;;;;;;;5051884;28;20026;-57
2021/09/16 08:30:45;;;;;;;3.55;1.48;;;;;;;;;;5044899;28;20033;-58
2021/09/16 08:33:12;;;;;;;2.78;0.90;;;;;;;;;;5050816;28;20049;-56
2021/09/16 08:35:38;;;;;;;1.55;1.13;;;;;;;;;;5052366;28;20029;-58
2021/09/16 08:38:04;;;;;;;2.38;0.60;;;;;;;;;;5071280;28;20483;-57
2021/09/16 08:40:31;;;;;;;1.10;1.00;;;;;;;;;;5066547;28;20115;-58
2021/09/16 08:42:57;;;;;;;2.13;1.00;;;;;;;;;;5063946;28;20460;-57
2021/09/16 08:45:23;;;;;;;1.00;0.70;;;;;;;;;;5055346;28;20057;-57
2021/09/16 08:47:51;;;;;;;0.88;0.60;;;;;;;;;;5068048;28;20033;-57
2021/09/16 08:50:18;;;;;;;2.33;0.90;;;;;;;;;;5044526;28;20036;-57
2021/09/16 08:52:45;;;;;;;0.93;0.60;;;;;;;;;;5062076;28;20473;-57
2021/09/16 08:55:12;;;;;;;1.10;0.45;;;;;;;;;;5054899;28;20036;-57
2021/09/16 08:57:39;;;;;;;0.68;0.60;;;;;;;;;;5042910;28;20029;-54
2021/09/16 09:00:10;;;;;;;1.42;0.68;;;;;;;;;;5035079;28;20070;-58
2021/09/16 09:02:36;;;;;;;1.50;0.43;;;;;;;;;;5063569;28;20047;-57
2021/09/16 09:05:03;;;;;;;1.95;0.50;;;;;;;;;;5049399;28;20032;-58
2021/09/16 09:07:37;;;;;;;1.90;0.80;;;;;;;;;;5056798;28;20099;-58
2021/09/16 09:10:03;;;;;;;0.65;0.47;;;;;;;;;;5058101;28;20067;-51
2021/09/16 09:12:33;;;;;;;0.25;0.20;;;;;;;;;;5054732;28;20025;-51
2021/09/16 09:14:59;;;;;;;0.88;0.60;;;;;;;;;;5056435;28;20040;-55
2021/09/16 09:17:27;;;;;;;1.85;0.43;;;;;;;;;;5059087;28;20020;-53
2021/09/16 09:19:54;;;;;;;0.93;0.70;;;;;;;;;;5056290;28;20073;-52
2021/09/16 09:22:27;;;;;;;0.68;0.30;;;;;;;;;;5054585;28;20033;-56
2021/09/16 09:24:59;;;;;;;0.70;0.28;;;;;;;;;;5054921;28;20026;-55
2021/09/16 09:27:30;;;;;;;0.10;0.10;;;;;;;;;;5058652;28;20025;-53
2021/09/16 09:30:08;;;;;;;0.35;0.20;;;;;;;;;;5047536;28;20065;-56
2021/09/16 09:32:46;;;;;;;0.85;0.28;;;;;;;;;;5051945;28;20066;-55
2021/09/16 09:35:27;;;;;;;0.93;0.40;;;;;;;;;;5052288;28;20082;-54
2021/09/16 09:37:53;;;;;;;0.82;0.38;;;;;;;;;;5056233;28;20025;-55
2021/09/16 09:40:30;;;;;;;1.15;0.30;;;;;;;;;;5058021;28;20032;-52
2021/09/16 09:43:16;;;;;;;0.22;0.15;;;;;;;;;;5057972;28;20056;-52
2021/09/16 09:46:01;;;;;;;0.38;0.20;;;;;;;;;;5054004;28;20628;-56
2021/09/16 09:48:27;;;;;;;0.55;0.25;;;;;;;;;;5062050;28;20029;-56
2021/09/16 09:50:54;;;;;;;2.30;0.50;;;;;;;;;;5064682;28;20029;-53
2021/09/16 09:53:20;;;;;;;0.40;0.30;;;;;;;;;;5062763;28;20079;-55
2021/09/16 09:55:47;;;;;;;0.95;0.63;;;;;;;;;;5067280;28;20089;-55
2021/09/16 09:58:13;;;;;;;0.90;0.63;;;;;;;;;;5053940;28;20462;-55
2021/09/16 10:00:39;;;;;;;0.40;0.30;;;;;;;;;;5057916;28;20128;-54
2021/09/16 10:03:05;;;;;;;2.90;0.47;;;;;;;;;;5059449;28;20116;-55
2021/09/16 10:05:33;;;;;;;3.20;0.20;;;;;;;;;;5048645;28;20116;-57
2021/09/16 10:08:05;;;;;;;0.50;0.20;;;;;;;;;;5053229;28;20029;-57
2021/09/16 10:10:35;;;;;;;1.42;0.20;;;;;;;;;;5053651;28;20103;-58
2021/09/16 10:13:01;;;;;;;2.90;0.22;;;;;;;;;;5049632;28;20076;-57
2021/09/16 10:15:27;;;;;;;1.42;0.10;;;;;;;;;;5037056;28;20037;-57
2021/09/16 10:17:54;;;;;;;0.52;0.20;;;;;;;;;;5059832;28;20778;-53
2021/09/16 10:20:21;;;;;;;0.68;0.25;;;;;;;;;;5050283;28;20428;-54
2021/09/16 10:22:48;;;;;;;0.28;0.20;;;;;;;;;;5050539;28;20116;-60
2021/09/16 10:25:15;;;;;;;0.68;0.20;;;;;;;;;;5033731;28;20024;-55
2021/09/16 10:27:43;;;;;;;0.30;0.17;;;;;;;;;;5042953;28;20048;-55
2021/09/16 10:30:23;;;;;;;1.30;0.28;;;;;;;;;;5049041;28;20024;-55
2021/09/16 10:33:10;;;;;;;0.60;0.30;;;;;;;;;;5048741;28;20041;-57
2021/09/16 10:35:37;;;;;;;0.30;0.20;;;;;;;;;;5031771;28;20044;-54
2021/09/16 10:38:22;;;;;;;0.30;0.20;;;;;;;;;;5059103;28;20798;-52
2021/09/16 10:40:49;;;;;;;2.38;0.20;;;;;;;;;;5057454;28;20036;-55
2021/09/16 10:43:22;;;;;;;0.90;0.22;;;;;;;;;;5066662;28;20400;-55
2021/09/16 10:45:48;;;;;;;;;;;;;;;;;;5056645;28;20032;-53
2021/09/16 10:48:14;;;;;;;0.98;0.30;;;;;;;;;;5057274;28;19908;-52
2021/09/16 10:50:45;;;;;;;2.22;0.40;;;;;;;;;;5061735;28;20027;-52
2021/09/16 10:53:30;;;;;;;0.38;0.28;;;;;;;;;;5050950;28;20091;-56
2021/09/16 10:55:56;;;;;;;1.50;0.50;;;;;;;;;;5053249;28;20039;-56
2021/09/16 10:58:23;;;;;;;0.70;0.32;;;;;;;;;;5058601;28;20555;-53
2021/09/16 11:00:49;;;;;;;3.50;0.85;;;;;;;;;;5058461;28;20382;-54
2021/09/16 11:03:16;;;;;;;0.47;0.22;;;;;;;;;;5052670;28;20025;-52
2021/09/16 11:05:50;;;;;;;0.35;0.30;;;;;;;;;;5057337;28;20029;-52
2021/09/16 11:08:17;;;;;;;2.38;0.40;;;;;;;;;;5047555;28;20037;-50
2021/09/16 11:10:43;;;;;;;2.88;0.45;;;;;;;;;;5034552;28;20073;-51
2021/09/16 11:13:28;;;;;;;0.10;0.10;;;;;;;;;;5054835;28;20026;-55
2021/09/16 11:15:54;;;;;;;0.43;0.20;;;;;;;;;;5047453;28;20104;-55
2021/09/16 11:18:22;;;;;;;3.22;0.20;;;;;;;;;;5055356;28;20025;-56
2021/09/16 11:20:49;;;;;;;2.38;0.50;;;;;;;;;;5048054;28;20052;-57
2021/09/16 11:23:18;;;;;;;2.00;0.13;;;;;;;;;;5052432;28;20411;-57
2021/09/16 11:25:45;;;;;;;0.50;0.20;;;;;;;;;;5050741;28;20027;-57
2021/09/16 11:28:12;;;;;;;1.58;0.28;;;;;;;;;;5032269;28;20500;-56
2021/09/16 11:30:40;;;;;;;0.70;0.22;;;;;;;;;;5048006;28;20136;-57
2021/09/16 11:33:07;;;;;;;2.05;0.20;;;;;;;;;;5049292;28;20495;-57
2021/09/16 11:35:33;;;;;;;0.30;0.20;;;;;;;;;;5051141;28;20108;-57
2021/09/16 11:38:01;;;;;;;3.72;0.32;;;;;;;;;;5048979;28;20472;-57
2021/09/16 11:40:29;;;;;;;0.98;0.35;;;;;;;;;;5054744;28;20039;-57
2021/09/16 11:42:56;;;;;;;0.38;0.30;;;;;;;;;;5043277;28;20420;-57
2021/09/16 11:45:24;;;;;;;1.05;0.40;;;;;;;;;;5052434;28;20029;-55
2021/09/16 11:47:51;;;;;;;4.80;0.13;;;;;;;;;;5043325;28;20037;-57
2021/09/16 11:50:37;;;;;;;1.25;0.28;;;;;;;;;;5045077;28;20070;-55
2021/09/16 11:53:04;;;;;;;0.70;0.30;;;;;;;;;;5044623;28;20103;-56
2021/09/16 11:55:35;;;;;;;1.65;0.35;;;;;;;;;;5056806;28;20056;-56
2021/09/16 11:58:03;;;;;;;0.10;0.03;;;;;;;;;;5055261;28;20029;-56
2021/09/16 12:00:29;;;;;;;0.68;0.20;;;;;;;;;;5053237;28;20040;-57
2021/09/16 12:02:55;;;;;;;0.43;0.10;;;;;;;;;;5057613;28;20031;-55
2021/09/16 12:05:36;;;;;;;1.10;0.28;;;;;;;;;;5041685;28;20489;-57
2021/09/16 12:08:04;;;;;;;0.40;0.20;;;;;;;;;;5053378;28;20048;-55
2021/09/16 12:10:36;;;;;;;0.63;0.20;;;;;;;;;;5056825;28;20033;-52
2021/09/16 12:13:02;;;;;;;0.22;0.20;;;;;;;;;;5050742;28;20535;-53
2021/09/16 12:15:28;;;;;;;0.08;0.00;;;;;;;;;;5053529;28;20096;-51
2021/09/16 12:17:54;;;;;;;0.40;0.10;;;;;;;;;;5054424;28;20465;-51
2021/09/16 12:20:20;;;;;;;0.32;0.15;;;;;;;;;;5051875;28;20041;-52
2021/09/16 12:22:46;;;;;;;0.03;0.03;;;;;;;;;;5050444;28;20471;-55
2021/09/16 12:25:12;;;;;;;0.20;0.10;;;;;;;;;;5049885;28;20115;-54
2021/09/16 12:27:38;;;;;;;0.20;0.10;;;;;;;;;;5057308;28;20022;-53
2021/09/16 12:30:20;;;;;;;0.28;0.15;;;;;;;;;;5047800;28;20473;-52
2021/09/16 12:32:46;;;;;;;0.52;0.20;;;;;;;;;;5043455;28;20413;-52
2021/09/16 12:35:16;;;;;;;0.35;0.10;;;;;;;;;;5043692;28;20092;-53
2021/09/16 12:37:42;;;;;;;0.45;0.17;;;;;;;;;;5051337;28;20017;-54
2021/09/16 12:40:08;;;;;;;0.20;0.10;;;;;;;;;;5036351;28;20119;-55
2021/09/16 12:42:40;;;;;;;0.13;0.10;;;;;;;;;;5055973;28;20540;-56
2021/09/16 12:45:10;;;;;;;0.15;0.00;;;;;;;;;;5046562;28;20040;-57
2021/09/16 12:47:49;;;;;;;0.30;0.03;;;;;;;;;;5057428;28;20093;-56
2021/09/16 12:50:16;;;;;;;0.40;0.10;;;;;;;;;;5053312;28;20033;-58
2021/09/16 12:52:42;;;;;;;1.60;0.10;;;;;;;;;;5053564;28;20037;-56
2021/09/16 12:55:12;;;;;;;0.22;0.05;;;;;;;;;;5061372;28;20021;-55
2021/09/16 12:57:40;;;;;;;0.38;0.00;;;;;;;;;;5065587;28;20411;-55
2021/09/16 13:00:08;;;;;;;0.25;0.00;;;;;;;;;;5055557;28;20038;-57
2021/09/16 13:02:46;;;;;;;0.82;0.10;;;;;;;;;;5055445;28;20093;-54
2021/09/16 13:05:22;;;;;;;0.57;0.10;;;;;;;;;;5050349;28;20040;-53
2021/09/16 13:08:07;;;;;;;0.38;0.10;;;;;;;;;;5064684;28;20017;-53
2021/09/16 13:10:42;;;;;;;1.77;0.10;;;;;;;;;;5045498;28;20037;-57
2021/09/16 13:13:13;;;;;;;0.15;0.00;;;;;;;;;;5046499;28;20052;-54
2021/09/16 13:15:42;;;;;;;0.43;0.13;;;;;;;;;;5045797;28;20059;-57
2021/09/16 13:18:08;;;;;;;0.88;0.20;;;;;;;;;;5056084;28;20028;-56
2021/09/16 13:20:35;;;;;;;0.55;0.10;;;;;;;;;;5054650;28;20068;-57
2021/09/16 13:23:01;;;;;;;0.32;0.10;;;;;;;;;;5048408;28;20511;-52
2021/09/16 13:25:29;;;;;;;0.13;0.10;;;;;;;;;;5049931;28;20362;-55
2021/09/16 13:27:55;;;;;;;0.93;0.20;;;;;;;;;;5055046;28;20439;-55
2021/09/16 13:30:22;;;;;;;0.70;0.20;;;;;;;;;;5051438;28;20120;-52
2021/09/16 13:32:48;;;;;;;1.65;0.20;;;;;;;;;;5049251;28;20044;-53
2021/09/16 13:35:15;;;;;;;0.20;0.15;;;;;;;;;;5045023;28;20060;-54
2021/09/16 13:37:41;;;;;;;0.38;0.20;;;;;;;;;;5048206;28;20053;-52
2021/09/16 13:40:08;;;;;;;1.38;0.28;;;;;;;;;;5051745;28;20043;-51
2021/09/16 13:42:34;;;;;;;0.55;0.20;;;;;;;;;;5063368;28;20457;-51
2021/09/16 13:45:00;;;;;;;0.32;0.15;;;;;;;;;;5053646;28;20125;-54
2021/09/16 13:47:26;;;;;;;0.60;0.30;;;;;;;;;;5061545;28;20469;-55
2021/09/16 13:49:52;;;;;;;1.40;0.20;;;;;;;;;;5059421;28;20060;-56
2021/09/16 13:52:18;;;;;;;1.63;0.30;;;;;;;;;;5045011;28;20461;-55
2021/09/16 13:54:45;;;;;;;0.45;0.22;;;;;;;;;;5049847;28;20021;-56
2021/09/16 13:57:11;;;;;;;1.15;0.30;;;;;;;;;;5060279;28;20476;-57
2021/09/16 13:59:37;;;;;;;2.97;0.38;;;;;;;;;;5046617;28;20067;-56
2021/09/16 14:02:03;;;;;;;1.20;0.30;;;;;;;;;;5043176;28;20385;-56
2021/09/16 14:04:29;;;;;;;4.80;0.73;;;;;;;;;;5052413;28;20403;-56
2021/09/16 14:06:55;;;;;;;1.08;0.20;;;;;;;;;;5041690;28;20071;-53
2021/09/16 14:09:21;;;;;;;0.60;0.20;;;;;;;;;;5057737;28;20104;-55
2021/09/16 14:11:47;;;;;;;0.60;0.30;;;;;;;;;;5053237;28;20477;-51
2021/09/16 14:14:13;;;;;;;0.70;0.40;;;;;;;;;;5051293;28;20030;-55
2021/09/16 14:16:39;;;;;;;1.08;0.50;;;;;;;;;;5057372;28;20468;-55
2021/09/16 14:19:05;;;;;;;0.57;0.30;;;;;;;;;;5048358;28;20049;-54
2021/09/16 14:21:35;;;;;;;2.30;0.40;;;;;;;;;;5059286;28;20056;-56
2021/09/16 14:24:01;;;;;;;0.50;0.25;;;;;;;;;;5043780;28;20757;-55
2021/09/16 14:26:27;;;;;;;1.75;0.43;;;;;;;;;;5045031;28;20458;-51
2021/09/16 14:28:53;;;;;;;2.28;0.40;;;;;;;;;;5060145;28;20029;-53
2021/09/16 14:31:19;;;;;;;1.00;0.40;;;;;;;;;;5047324;28;20041;-55
2021/09/16 14:33:45;;;;;;;0.30;0.28;;;;;;;;;;5043004;28;20017;-56
2021/09/16 14:36:11;;;;;;;0.95;0.45;;;;;;;;;;5046858;28;20458;-56
2021/09/16 14:38:37;;;;;;;0.75;0.30;;;;;;;;;;5046283;28;20041;-57